createdAt,value
2022-11-08T00:01:33.285Z,100345.09
2022-11-08T00:04:07.498Z,100351.94
2022-11-08T00:06:58.311Z,100351.19
2022-11-08T00:09:48.425Z,100367.41
2022-11-08T00:12:38.546Z,100359.69
2022-11-08T00:15:10.490Z,100364.38
2022-11-08T00:17:41.961Z,100351.63
2022-11-08T00:20:13.324Z,100365.69
2022-11-08T00:22:44.567Z,100354.50
2022-11-08T00:25:15.963Z,100363.41
2022-11-08T00:27:47.222Z,100374.09
2022-11-08T00:30:18.706Z,100368.75
2022-11-08T00:32:49.963Z,100368.75
2022-11-08T00:35:21.212Z,100373.88
2022-11-08T00:37:52.477Z,100367.63
2022-11-08T00:40:23.711Z,100373.88
2022-11-08T00:42:54.977Z,100378.28
2022-11-08T00:45:26.253Z,100377.34
2022-11-08T00:47:57.518Z,100364.94
2022-11-08T00:50:28.878Z,100364.91
2022-11-08T00:53:00.142Z,100368.44
2022-11-08T00:55:31.599Z,100361.56
2022-11-08T00:58:02.898Z,100358.97
2022-11-08T01:00:34.287Z,100366.97
2022-11-08T01:03:21.125Z,100359.06
2022-11-08T01:05:54.561Z,100357.44
2022-11-08T01:08:25.951Z,100350.78
2022-11-08T01:10:57.245Z,100359.53
2022-11-08T01:13:28.794Z,100357.13
2022-11-08T01:16:15.065Z,100360.84
2022-11-08T01:18:48.569Z,100361.06
2022-11-08T01:21:20.358Z,100360.53
2022-11-08T01:23:52.231Z,100352.75
2022-11-08T01:26:26.735Z,100358.28
2022-11-08T01:28:59.035Z,100363.78
2022-11-08T01:31:31.865Z,100363.13
2022-11-08T01:34:03.247Z,100349.38
2022-11-08T01:36:34.641Z,100365.84
2022-11-08T01:39:05.930Z,100370.13
2022-11-08T01:41:38.590Z,100359.34
2022-11-08T01:44:16.477Z,100360.94
2022-11-08T01:46:47.916Z,100366.97
2022-11-08T01:49:32.022Z,100348.25
2022-11-08T01:52:12.440Z,100355.88
2022-11-08T01:54:56.041Z,100345.06
2022-11-08T01:57:59.987Z,100345.84
2022-11-08T02:00:31.301Z,100352.72
2022-11-08T02:03:04.940Z,100349.03
2022-11-08T02:05:36.215Z,100349.00
2022-11-08T02:08:23.014Z,100335.56
2022-11-08T02:10:54.601Z,100323.38
2022-11-08T02:13:28.580Z,100339.91
2022-11-08T02:16:00.184Z,100344.25
2022-11-08T02:18:32.473Z,100341.53
2022-11-08T02:21:10.516Z,100336.09
2022-11-08T02:23:50.241Z,100333.34
2022-11-08T02:26:29.508Z,100335.03
2022-11-08T02:29:28.337Z,100332.25
2022-11-08T02:32:00.992Z,100337.59
2022-11-08T02:34:55.450Z,100331.31
2022-11-08T02:37:27.666Z,100332.47
2022-11-08T02:39:59.068Z,100343.94
2022-11-08T02:42:30.475Z,100335.13
2022-11-08T02:45:01.771Z,100326.53
2022-11-08T02:47:33.064Z,100337.13
2022-11-08T02:50:04.798Z,100335.56
2022-11-08T02:52:36.122Z,100326.97
2022-11-08T02:55:07.738Z,100333.16
2022-11-08T02:57:39.023Z,100338.53
2022-11-08T03:00:11.038Z,100332.41
2022-11-08T03:02:42.465Z,100335.34
2022-11-08T03:05:13.946Z,100335.44
2022-11-08T03:07:45.387Z,100328.69
2022-11-08T03:10:17.123Z,100338.72
2022-11-08T03:13:02.435Z,100318.56
2022-11-08T03:15:33.704Z,100330.50
2022-11-08T03:18:05.764Z,100332.44
2022-11-08T03:20:37.018Z,100323.94
2022-11-08T03:23:08.404Z,100325.09
2022-11-08T03:25:39.670Z,100325.19
2022-11-08T03:28:10.964Z,100319.28
2022-11-08T03:30:42.223Z,100324.63
2022-11-08T03:33:13.474Z,100330.13
2022-11-08T03:35:44.837Z,100320.53
2022-11-08T03:38:16.915Z,100317.09
2022-11-08T03:40:48.467Z,100333.94
2022-11-08T03:43:19.789Z,100327.88
2022-11-08T03:45:51.045Z,100337.78
2022-11-08T03:48:23.733Z,100338.84
2022-11-08T03:50:54.983Z,100337.25
2022-11-08T03:53:26.227Z,100343.59
2022-11-08T03:55:59.880Z,100326.13
2022-11-08T03:58:31.144Z,100341.16
2022-11-08T04:01:06.355Z,100329.81
2022-11-08T04:03:37.661Z,100342.38
2022-11-08T04:06:09.281Z,100339.84
2022-11-08T04:08:40.597Z,100316.09
2022-11-08T04:11:30.487Z,100314.50
2022-11-08T04:14:20.302Z,100326.97
2022-11-08T04:16:51.609Z,100319.25
2022-11-08T04:19:41.611Z,100308.00
2022-11-08T04:22:12.952Z,100309.78
2022-11-08T04:24:44.233Z,100315.13
2022-11-08T04:27:15.501Z,100317.03
2022-11-08T04:29:46.781Z,100311.00
2022-11-08T04:32:18.066Z,100315.44
2022-11-08T04:34:49.400Z,100324.38
2022-11-08T04:37:20.688Z,100311.19
2022-11-08T04:39:51.972Z,100316.53
2022-11-08T04:42:23.276Z,100303.41
2022-11-08T04:44:54.560Z,100306.97
2022-11-08T04:47:27.268Z,100299.03
2022-11-08T04:49:58.555Z,100306.91
2022-11-08T04:52:29.842Z,100298.97
2022-11-08T04:55:01.127Z,100299.00
2022-11-08T04:57:32.398Z,100293.94
2022-11-08T05:00:04.415Z,100295.56
2022-11-08T05:02:35.802Z,100308.03
2022-11-08T05:05:08.204Z,100288.75
2022-11-08T05:07:39.452Z,100300.16
2022-11-08T05:10:10.797Z,100294.00
2022-11-08T05:12:42.089Z,100294.91
2022-11-08T05:15:13.413Z,100300.31
2022-11-08T05:17:44.741Z,100286.34
2022-11-08T05:20:34.574Z,100288.84
2022-11-08T05:23:24.143Z,100287.16
2022-11-08T05:25:57.239Z,100283.66
2022-11-08T05:28:28.523Z,100273.34
2022-11-08T05:30:59.787Z,100281.19
2022-11-08T05:33:31.192Z,100291.88
2022-11-08T05:36:08.048Z,100287.50
2022-11-08T05:38:40.254Z,100295.47
2022-11-08T05:41:13.292Z,100287.47
2022-11-08T05:43:50.329Z,100276.69
2022-11-08T05:46:22.926Z,100286.34
2022-11-08T05:48:54.387Z,100286.88
2022-11-08T05:51:25.852Z,100289.38
2022-11-08T05:53:57.116Z,100283.81
2022-11-08T05:56:28.418Z,100273.16
2022-11-08T05:58:59.728Z,100287.81
2022-11-08T06:01:31.049Z,100277.88
2022-11-08T06:04:02.437Z,100267.22
2022-11-08T06:06:33.820Z,100267.06
2022-11-08T06:09:05.086Z,100275.78
2022-11-08T06:11:36.361Z,100280.25
2022-11-08T06:14:07.713Z,100269.50
2022-11-08T06:16:38.954Z,100279.06
2022-11-08T06:19:10.220Z,100279.84
2022-11-08T06:21:41.569Z,100276.28
2022-11-08T06:24:15.602Z,100277.16
2022-11-08T06:26:46.869Z,100272.78
2022-11-08T06:29:18.132Z,100278.31
2022-11-08T06:31:49.376Z,100270.56
2022-11-08T06:34:20.758Z,100265.50
2022-11-08T06:36:52.696Z,100270.06
2022-11-08T06:39:24.220Z,100268.53
2022-11-08T06:41:55.503Z,100270.47
2022-11-08T06:44:27.104Z,100252.22
2022-11-08T06:46:59.715Z,100273.44
2022-11-08T06:49:31.010Z,100279.75
2022-11-08T06:52:02.872Z,100269.25
2022-11-08T06:54:34.459Z,100286.13
2022-11-08T06:57:05.754Z,100277.41
2022-11-08T06:59:37.111Z,100286.28
2022-11-08T07:02:10.567Z,100272.22
2022-11-08T07:04:42.102Z,100248.56
2022-11-08T07:07:13.365Z,100262.56
2022-11-08T07:09:44.645Z,100266.13
2022-11-08T07:12:15.904Z,100266.97
2022-11-08T07:14:47.173Z,100259.94
2022-11-08T07:17:18.418Z,100245.91
2022-11-08T07:19:49.672Z,100252.03
2022-11-08T07:22:20.930Z,100265.09
2022-11-08T07:24:52.280Z,100262.31
2022-11-08T07:27:23.637Z,100247.34
2022-11-08T07:29:54.905Z,100261.22
2022-11-08T07:32:26.369Z,100241.75
2022-11-08T07:34:57.628Z,100243.47
2022-11-08T07:37:28.909Z,100255.44
2022-11-08T07:40:00.189Z,100258.84
2022-11-08T07:42:50.029Z,100258.69
2022-11-08T07:45:22.692Z,100267.41
2022-11-08T07:48:05.426Z,100259.31
2022-11-08T07:50:42.096Z,100254.78
2022-11-08T07:53:13.481Z,100259.94
2022-11-08T07:55:46.963Z,100260.63
2022-11-08T07:58:18.297Z,100262.19
2022-11-08T08:00:50.081Z,100256.66
2022-11-08T08:03:21.958Z,100259.09
2022-11-08T08:05:59.457Z,100256.31
2022-11-08T08:08:32.045Z,100255.22
2022-11-08T08:11:04.957Z,100258.66
2022-11-08T08:13:36.232Z,100256.66
2022-11-08T08:16:07.849Z,100259.09
2022-11-08T08:18:39.112Z,100259.69
2022-11-08T08:21:10.367Z,100254.28
2022-11-08T08:23:41.679Z,100251.38
2022-11-08T08:26:13.062Z,100247.50
2022-11-08T08:28:44.308Z,100235.19
2022-11-08T08:31:16.142Z,100213.06
2022-11-08T08:33:47.409Z,100240.00
2022-11-08T08:36:18.860Z,100237.25
2022-11-08T08:38:50.119Z,100233.66
2022-11-08T08:41:21.663Z,100234.53
2022-11-08T08:43:52.898Z,100237.97
2022-11-08T08:46:24.238Z,100238.88
2022-11-08T08:48:55.518Z,100232.47
2022-11-08T08:51:26.788Z,100233.03
2022-11-08T08:53:58.538Z,100227.50
2022-11-08T08:56:30.330Z,100226.09
2022-11-08T09:01:53.123Z,100220.91
2022-11-08T09:04:24.394Z,100219.59
2022-11-08T09:06:55.906Z,100200.88
2022-11-08T09:09:27.213Z,100211.81
2022-11-08T09:11:58.465Z,100198.91
2022-11-08T09:14:29.752Z,100194.06
2022-11-08T09:17:01.014Z,100197.09
2022-11-08T09:19:32.262Z,100200.22
2022-11-08T09:22:03.630Z,100198.16
2022-11-08T09:24:34.984Z,100191.59
2022-11-08T09:27:06.329Z,100194.94
2022-11-08T09:29:37.587Z,100176.28
2022-11-08T09:32:08.943Z,100182.91
2022-11-08T09:34:40.266Z,100181.94
2022-11-08T09:37:11.763Z,100192.91
2022-11-08T09:39:43.057Z,100185.31
2022-11-08T09:42:28.519Z,100171.56
2022-11-08T09:45:11.714Z,100167.13
2022-11-08T09:47:49.031Z,100170.06
2022-11-08T09:50:43.800Z,100165.94
2022-11-08T09:53:43.708Z,100166.38
2022-11-08T09:56:35.431Z,100164.25
2022-11-08T09:59:34.244Z,100169.31
2022-11-08T10:02:20.506Z,100155.75
2022-11-08T10:04:56.944Z,100165.00
2022-11-08T10:08:09.885Z,100158.56
2022-11-08T10:11:02.034Z,100148.53
2022-11-08T10:13:56.988Z,100138.41
2022-11-08T10:17:05.651Z,100127.47
2022-11-08T10:19:46.215Z,100136.69
2022-11-08T10:22:30.476Z,100125.81
2022-11-08T10:25:09.296Z,100114.34
2022-11-08T10:27:42.900Z,100111.72
2022-11-08T10:30:30.066Z,100092.28
2022-11-08T10:33:01.469Z,100097.63
2022-11-08T10:35:45.609Z,100093.88
2022-11-08T10:38:21.507Z,100084.84
2022-11-08T10:41:00.313Z,100075.00
2022-11-08T10:43:38.057Z,100080.06
2022-11-08T10:46:33.653Z,100078.97
2022-11-08T10:49:37.280Z,100087.63
2022-11-08T10:52:11.407Z,100077.63
2022-11-08T10:54:53.499Z,100070.25
2022-11-08T10:57:27.543Z,100070.00
2022-11-08T11:00:20.938Z,100068.91
2022-11-08T11:02:53.382Z,100077.59
2022-11-08T11:05:37.058Z,100064.13
2022-11-08T11:08:08.376Z,100064.84
2022-11-08T11:10:44.224Z,100056.47
2022-11-08T11:13:18.428Z,100053.50
2022-11-08T11:16:04.395Z,100046.31
2022-11-08T11:18:37.019Z,100061.91
2022-11-08T11:21:15.970Z,100056.16
2022-11-08T11:23:50.030Z,100051.44
2022-11-08T11:26:32.050Z,100050.16
2022-11-08T11:29:06.675Z,100053.63
2022-11-08T11:31:40.468Z,100049.06
2022-11-08T11:34:17.555Z,100045.50
2022-11-08T11:37:10.775Z,100039.38
2022-11-08T11:40:03.703Z,100030.22
2022-11-08T11:42:48.860Z,100031.72
2022-11-08T11:45:40.358Z,100028.63
2022-11-08T11:48:17.022Z,100029.31
2022-11-08T11:50:50.428Z,100023.88
2022-11-08T11:53:26.695Z,100022.06
2022-11-08T11:56:16.456Z,100006.84
2022-11-08T11:59:10.962Z,100019.75
2022-11-08T12:01:55.109Z,100011.38
2022-11-08T12:04:45.028Z,100001.34
2022-11-08T12:07:27.156Z,100000.38
2022-11-08T12:10:26.505Z,100003.84
2022-11-08T12:13:08.623Z,99996.66
2022-11-08T12:15:52.938Z,99993.38
2022-11-08T12:18:49.539Z,99979.91
2022-11-08T12:21:41.440Z,99987.75
2022-11-08T12:24:37.813Z,99984.91
2022-11-08T12:27:41.914Z,99980.41
2022-11-08T12:30:20.861Z,99978.84
2022-11-08T12:33:22.437Z,99988.63
2022-11-08T12:36:03.912Z,99989.47
2022-11-08T12:38:55.507Z,99989.56
2022-11-08T12:41:57.712Z,99977.28
2022-11-08T12:44:38.003Z,99983.50
2022-11-08T12:47:33.825Z,99972.78
2022-11-08T12:50:20.461Z,99959.72
2022-11-08T12:53:00.491Z,99976.34
2022-11-08T12:55:36.994Z,99973.56
2022-11-08T12:58:34.756Z,99964.75
2022-11-08T13:01:10.980Z,99972.78
2022-11-08T13:03:42.708Z,99979.97
2022-11-08T13:06:43.305Z,99975.38
2022-11-08T13:09:42.322Z,99971.75
2022-11-08T13:13:05.104Z,99970.88
2022-11-08T13:15:36.393Z,99963.97
2022-11-08T13:18:07.603Z,99967.50
2022-11-08T13:20:42.407Z,99964.06
2022-11-08T13:23:29.894Z,99955.31
2022-11-08T13:26:24.389Z,99949.63
2022-11-08T13:29:13.101Z,99946.84
2022-11-08T13:31:56.455Z,99953.00
2022-11-08T13:34:46.268Z,99937.25
2022-11-08T13:37:40.198Z,99929.03
2022-11-08T13:40:26.804Z,99942.53
2022-11-08T13:43:32.738Z,99943.56
2022-11-08T13:46:30.801Z,99938.38
2022-11-08T13:49:05.298Z,99943.13
2022-11-08T13:51:38.318Z,99931.97
2022-11-08T13:54:21.963Z,99936.53
2022-11-08T13:56:57.595Z,99936.09
2022-11-08T13:59:32.120Z,99938.00
2022-11-08T14:02:25.156Z,99939.97
2022-11-08T14:05:17.779Z,99946.34
2022-11-08T14:08:14.784Z,99942.09
2022-11-08T14:11:02.352Z,99948.09
2022-11-08T14:14:01.008Z,99940.22
2022-11-08T14:16:42.362Z,99943.06
2022-11-08T14:19:19.000Z,99933.47
2022-11-08T14:21:56.993Z,99930.31
2022-11-08T14:24:33.096Z,99944.34
2022-11-08T14:27:04.350Z,99936.47
2022-11-08T14:29:35.683Z,99935.84
2022-11-08T14:32:15.266Z,99932.47
2022-11-08T14:34:46.529Z,99933.34
2022-11-08T14:37:23.495Z,99936.88
2022-11-08T14:39:54.745Z,99929.72
2022-11-08T14:42:26.209Z,99932.47
2022-11-08T14:44:57.645Z,99925.38
2022-11-08T14:47:30.206Z,99931.69
2022-11-08T14:50:01.445Z,99932.72
2022-11-08T14:52:33.080Z,99921.22
2022-11-08T14:55:08.898Z,99921.38
2022-11-08T14:57:44.013Z,99918.78
2022-11-08T15:00:20.129Z,99912.72
2022-11-08T15:02:53.286Z,99920.06
2022-11-08T15:05:26.837Z,99909.50
2022-11-08T15:07:59.123Z,99915.88
2022-11-08T15:10:30.391Z,99916.06
2022-11-08T15:13:01.687Z,99904.63
2022-11-08T15:15:33.629Z,99903.00
2022-11-08T15:18:11.361Z,99890.63
2022-11-08T15:20:56.515Z,99897.88
2022-11-08T15:23:41.207Z,99903.31
2022-11-08T15:26:31.615Z,99888.28
2022-11-08T15:29:07.912Z,99885.75
2022-11-08T15:31:44.318Z,99892.06
2022-11-08T15:34:20.108Z,99892.16
2022-11-08T15:36:51.547Z,99892.16
2022-11-08T15:39:24.635Z,99896.63
2022-11-08T15:42:03.044Z,99893.16
2022-11-08T15:44:34.332Z,99891.50
2022-11-08T15:47:25.487Z,99880.03
2022-11-08T15:49:56.704Z,99881.91
2022-11-08T15:52:27.908Z,99880.34
2022-11-08T15:54:59.119Z,99886.81
2022-11-08T15:57:30.341Z,99893.31
2022-11-08T16:00:01.964Z,99891.81
2022-11-08T16:02:33.170Z,99889.38
2022-11-08T16:05:33.846Z,99889.63
2022-11-08T16:08:05.310Z,99881.03
2022-11-08T16:10:38.112Z,99879.47
2022-11-08T16:13:29.748Z,99873.47
2022-11-08T16:16:01.802Z,99880.72
2022-11-08T16:18:35.310Z,99875.59
2022-11-08T16:21:06.723Z,99859.72
2022-11-08T16:23:38.948Z,99856.16
2022-11-08T16:26:15.492Z,99843.75
2022-11-08T16:28:46.959Z,99846.50
2022-11-08T16:31:18.209Z,99855.53
2022-11-08T16:33:49.711Z,99854.75
2022-11-08T16:36:25.532Z,99870.00
2022-11-08T16:38:57.570Z,99867.47
2022-11-08T16:41:28.895Z,99872.03
2022-11-08T16:44:00.207Z,99864.06
2022-11-08T16:46:31.521Z,99863.22
2022-11-08T16:49:04.303Z,99864.06
2022-11-08T16:51:35.562Z,99871.16
2022-11-08T16:54:14.934Z,99861.41
2022-11-08T16:56:46.220Z,99867.69
2022-11-08T16:59:17.450Z,99875.72
2022-11-08T17:01:49.166Z,99886.41
2022-11-08T17:04:20.618Z,99891.81
2022-11-08T17:06:51.947Z,99890.22
2022-11-08T17:09:23.228Z,99891.25
2022-11-08T17:11:54.451Z,99891.38
2022-11-08T17:14:25.719Z,99896.88
2022-11-08T17:16:57.015Z,99889.94
2022-11-08T17:19:28.398Z,99904.25
2022-11-08T17:21:59.603Z,99903.31
2022-11-08T17:24:30.820Z,99900.63
2022-11-08T17:27:02.288Z,99908.72
2022-11-08T17:29:33.510Z,99904.38
2022-11-08T17:32:04.772Z,99900.78
2022-11-08T17:34:36.024Z,99904.25
2022-11-08T17:37:07.513Z,99905.13
2022-11-08T17:39:38.800Z,99898.84
2022-11-08T17:42:10.067Z,99906.06
2022-11-08T17:44:41.319Z,99904.38
2022-11-08T17:47:12.771Z,99908.00
2022-11-08T17:49:44.342Z,99908.94
2022-11-08T17:52:16.198Z,99903.75
2022-11-08T17:54:52.654Z,99902.94
2022-11-08T17:57:24.303Z,99911.09
2022-11-08T17:59:55.626Z,99909.50
2022-11-08T18:02:27.922Z,99903.56
2022-11-08T18:04:59.279Z,99904.63
2022-11-08T18:07:30.615Z,99901.25
2022-11-08T18:10:02.687Z,99895.19
2022-11-08T18:12:36.297Z,99901.47
2022-11-08T18:15:08.669Z,99896.13
2022-11-08T18:17:39.986Z,99904.13
2022-11-08T18:20:11.483Z,99913.00
2022-11-08T18:22:42.896Z,99910.38
2022-11-08T18:25:14.239Z,99911.31
2022-11-08T18:27:45.501Z,99908.84
2022-11-08T18:30:16.891Z,99906.25
2022-11-08T18:32:48.181Z,99907.19
2022-11-08T18:35:19.453Z,99904.50
2022-11-08T18:37:50.691Z,99902.78
2022-11-08T18:40:22.520Z,99901.06
2022-11-08T18:42:53.795Z,99902.00
2022-11-08T18:45:25.040Z,99918.94
2022-11-08T18:47:56.384Z,99904.78
2022-11-08T18:50:28.667Z,99896.00
2022-11-08T18:53:03.768Z,99907.53
2022-11-08T18:55:35.526Z,99908.41
2022-11-08T18:58:06.771Z,99903.00
2022-11-08T19:00:38.686Z,99902.91
2022-11-08T19:03:10.022Z,99906.38
2022-11-08T19:05:46.911Z,99906.38
2022-11-08T19:08:20.072Z,99917.94
2022-11-08T19:10:55.478Z,99902.78
2022-11-08T19:13:28.039Z,99907.97
2022-11-08T19:16:04.383Z,99898.09
2022-11-08T19:18:36.078Z,99903.28
2022-11-08T19:21:15.191Z,99908.53
2022-11-08T19:23:47.340Z,99909.31
2022-11-08T19:26:19.972Z,99906.44
2022-11-08T19:28:53.374Z,99908.91
2022-11-08T19:31:25.179Z,99906.16
2022-11-08T19:33:56.517Z,99896.22
2022-11-08T19:36:28.941Z,99904.09
2022-11-08T19:39:00.275Z,99897.75
2022-11-08T19:41:31.517Z,99905.69
2022-11-08T19:44:03.505Z,99895.88
2022-11-08T19:46:34.850Z,99897.59
2022-11-08T19:49:06.182Z,99892.28
2022-11-08T19:51:37.935Z,99902.00
2022-11-08T19:54:11.905Z,99903.75
2022-11-08T19:57:03.781Z,99908.16
2022-11-08T19:59:34.634Z,99901.78
2022-11-08T20:02:06.203Z,99902.50
2022-11-08T20:04:37.516Z,99897.97
2022-11-08T20:07:08.818Z,99918.31
2022-11-08T20:09:40.118Z,99921.06
2022-11-08T20:12:11.400Z,99914.00
2022-11-08T20:15:51.737Z,99925.63
2022-11-08T20:18:23.041Z,99924.81
2022-11-08T20:20:54.257Z,99929.38
2022-11-08T20:23:25.581Z,99918.81
2022-11-08T20:25:59.596Z,99922.44
2022-11-08T20:28:30.954Z,99922.44
2022-11-08T20:31:03.577Z,99925.09
2022-11-08T20:33:36.402Z,99920.63
2022-11-08T20:36:09.005Z,99920.63
2022-11-08T20:38:40.505Z,99921.56
2022-11-08T20:41:13.151Z,99918.09
2022-11-08T20:43:45.683Z,99929.66
2022-11-08T20:46:18.486Z,99917.25
2022-11-08T20:48:51.203Z,99918.09
2022-11-08T20:51:22.655Z,99929.72
2022-11-08T20:53:55.134Z,99922.72
2022-11-08T20:56:27.209Z,99920.06
2022-11-08T20:58:58.524Z,99927.28
2022-11-08T21:01:32.400Z,99945.16
2022-11-08T21:04:03.939Z,99931.06
2022-11-08T21:06:36.530Z,99939.06
2022-11-08T21:09:32.799Z,99924.91
2022-11-08T21:11:59.822Z,99933.00
2022-11-08T21:14:31.131Z,99928.59
2022-11-08T21:17:21.473Z,99928.59
2022-11-08T21:19:54.062Z,99933.94
2022-11-08T21:22:25.363Z,99931.34
2022-11-08T21:24:56.672Z,99919.72
2022-11-08T21:27:29.900Z,99934.72
2022-11-08T21:30:01.437Z,99920.50
2022-11-08T21:32:33.146Z,99929.53
2022-11-08T21:35:04.591Z,99941.22
2022-11-08T21:37:35.915Z,99931.53
2022-11-08T21:40:07.856Z,99934.34
2022-11-08T21:42:41.708Z,99934.41
2022-11-08T21:45:14.917Z,99939.06
2022-11-08T21:47:54.968Z,99941.94
2022-11-08T21:50:26.329Z,99938.63
2022-11-08T21:52:57.531Z,99923.81
2022-11-08T21:55:29.685Z,99932.97
2022-11-08T21:58:01.523Z,99935.03
2022-11-08T22:00:32.971Z,99938.97
2022-11-08T22:03:04.282Z,99942.84
2022-11-08T22:05:35.554Z,99932.44
2022-11-08T22:08:06.771Z,99945.09
2022-11-08T22:10:38.055Z,99937.25
2022-11-08T22:13:09.293Z,99940.91
2022-11-08T22:15:40.529Z,99946.44
2022-11-08T22:18:16.343Z,99937.75
2022-11-08T22:21:09.579Z,99945.97
2022-11-08T22:23:40.775Z,99940.03
2022-11-08T22:26:11.988Z,99943.78
2022-11-08T22:28:43.194Z,99935.09
2022-11-08T22:31:14.485Z,99935.28
2022-11-08T22:33:45.760Z,99935.47
2022-11-08T22:36:19.141Z,99941.00
2022-11-08T22:38:50.595Z,99941.13
2022-11-08T22:41:22.701Z,99933.19
2022-11-08T22:43:53.971Z,99931.47
2022-11-08T22:46:25.198Z,99932.41
2022-11-08T22:48:56.430Z,99931.47
2022-11-08T22:51:27.695Z,99932.41
2022-11-08T22:53:58.968Z,99926.94
2022-11-08T22:56:30.244Z,99943.72
2022-11-08T22:59:01.689Z,99935.69
2022-11-08T23:01:33.377Z,99933.00
2022-11-08T23:04:04.678Z,99928.59
2022-11-08T23:06:35.985Z,99929.53
2022-11-08T23:09:07.277Z,99934.06
2022-11-08T23:11:57.335Z,99933.25
2022-11-08T23:14:47.158Z,99936.00
2022-11-08T23:17:18.426Z,99936.06
2022-11-08T23:20:08.435Z,99947.63
2022-11-08T23:22:58.323Z,99937.03
2022-11-08T23:25:29.659Z,99937.13
2022-11-08T23:28:19.757Z,99932.84
2022-11-08T23:31:09.497Z,99938.25
2022-11-08T23:33:43.888Z,99937.44
2022-11-08T23:36:15.781Z,99934.91
2022-11-08T23:38:47.161Z,99935.94
2022-11-08T23:41:37.183Z,99934.22
2022-11-08T23:44:24.133Z,99938.72
2022-11-08T23:46:57.436Z,99938.00
2022-11-08T23:49:28.740Z,99938.91
2022-11-08T23:52:00.345Z,99947.84
2022-11-08T23:54:31.649Z,99941.66
2022-11-08T23:57:02.869Z,99955.00
2022-11-08T23:59:34.058Z,99950.69
